createdAt,value
2017-02-28T00:00:16.862Z,6.84
2017-02-28T00:00:58.545Z,6.89
2017-02-28T00:01:40.204Z,6.88
2017-02-28T00:02:21.719Z,6.85
2017-02-28T00:03:03.391Z,6.87
2017-02-28T00:03:44.886Z,6.89
2017-02-28T00:05:23.880Z,6.76
2017-02-28T00:06:05.542Z,6.79
2017-02-28T00:06:47.216Z,6.84
2017-02-28T00:07:28.645Z,6.81
2017-02-28T00:09:07.621Z,6.8
2017-02-28T00:09:49.366Z,6.73
2017-02-28T00:10:31.012Z,6.8
2017-02-28T00:11:12.612Z,6.79
2017-02-28T00:13:27.892Z,6.76
2017-02-28T00:14:09.379Z,6.87
2017-02-28T00:14:51.054Z,6.76
2017-02-28T00:15:32.674Z,6.84
2017-02-28T00:16:14.199Z,6.84
2017-02-28T00:16:55.724Z,6.87
2017-02-28T00:17:37.357Z,6.88
2017-02-28T00:19:52.723Z,6.8
2017-02-28T00:20:34.261Z,6.7
2017-02-28T00:21:16.046Z,6.71
2017-02-28T00:21:57.645Z,6.71
2017-02-28T00:22:39.258Z,6.8
2017-02-28T00:23:20.787Z,6.76
2017-02-28T00:24:59.811Z,6.74
2017-02-28T00:25:41.272Z,6.71
2017-02-28T00:26:22.800Z,6.73
2017-02-28T00:27:04.538Z,6.74
2017-02-28T00:27:45.985Z,6.76
2017-02-28T00:29:24.946Z,6.77
2017-02-28T00:30:06.494Z,6.71
2017-02-28T00:30:48.238Z,6.7
2017-02-28T00:33:03.444Z,6.81
2017-02-28T00:33:45.023Z,6.73
2017-02-28T00:34:26.681Z,6.77
2017-02-28T00:35:08.521Z,6.74
2017-02-28T00:35:50.182Z,6.76
2017-02-28T00:36:31.801Z,6.73
2017-02-28T00:37:13.350Z,6.73
2017-02-28T00:37:54.971Z,6.74
2017-02-28T00:38:36.596Z,6.64
2017-02-28T00:40:51.679Z,6.64
2017-02-28T00:41:33.212Z,6.61
2017-02-28T00:42:14.817Z,6.61
2017-02-28T00:44:14.765Z,6.62
2017-02-28T00:44:56.342Z,6.52
2017-02-28T00:45:37.925Z,6.51
2017-02-28T00:47:16.962Z,6.43
2017-02-28T00:47:58.403Z,6.34
2017-02-28T00:49:52.934Z,6.49
2017-02-28T00:51:47.529Z,6.4
2017-02-28T00:52:29.084Z,6.34
2017-02-28T00:53:10.645Z,6.36
2017-02-28T00:53:52.244Z,6.41
2017-02-28T00:56:07.313Z,6.31
2017-02-28T00:56:48.687Z,6.33
2017-02-28T00:57:30.196Z,6.28
2017-02-28T00:58:11.795Z,6.31
2017-02-28T00:58:53.360Z,6.22
2017-02-28T00:59:34.498Z,6.36
2017-02-28T01:00:15.994Z,6.33
2017-02-28T01:00:57.411Z,6.34
2017-02-28T01:01:38.880Z,6.31
2017-02-28T01:02:20.012Z,6.21
2017-02-28T01:03:01.431Z,6.3
2017-02-28T01:03:42.738Z,6.31
2017-02-28T01:04:24.142Z,6.3
2017-02-28T01:05:05.704Z,6.31
2017-02-28T01:05:47.160Z,6.27
2017-02-28T01:06:28.795Z,6.3
2017-02-28T01:07:10.482Z,6.28
2017-02-28T01:07:52.042Z,6.25
2017-02-28T01:08:33.700Z,6.27
2017-02-28T01:09:15.352Z,6.34
2017-02-28T01:09:56.958Z,6.3
2017-02-28T01:10:38.391Z,6.37
2017-02-28T01:11:19.997Z,6.3
2017-02-28T01:12:01.655Z,6.33
2017-02-28T01:14:17.138Z,6.33
2017-02-28T01:14:58.776Z,6.28
2017-02-28T01:16:47.909Z,6.31
2017-02-28T01:17:29.411Z,6.36
2017-02-28T01:18:11.049Z,6.31
2017-02-28T01:18:52.563Z,6.3
2017-02-28T01:19:34.225Z,6.27
2017-02-28T01:20:15.774Z,6.25
2017-02-28T01:20:57.285Z,6.36
2017-02-28T01:22:57.065Z,6.27
2017-02-28T01:23:38.668Z,6.27
2017-02-28T01:24:20.213Z,6.3
2017-02-28T01:25:01.789Z,6.27
2017-02-28T01:25:43.412Z,6.27
2017-02-28T01:26:24.953Z,6.25
2017-02-28T01:27:06.488Z,6.33
2017-02-28T01:27:48.054Z,6.25
2017-02-28T01:28:29.608Z,6.21
2017-02-28T01:29:11.152Z,6.21
2017-02-28T01:29:52.681Z,6.28
2017-02-28T01:30:34.131Z,6.28
2017-02-28T01:31:15.573Z,6.3
2017-02-28T01:31:57.256Z,6.3
2017-02-28T01:33:46.688Z,6.28
2017-02-28T01:34:28.389Z,6.3
2017-02-28T01:35:10.033Z,6.17
2017-02-28T01:35:51.768Z,6.22
2017-02-28T01:36:33.306Z,6.21
2017-02-28T01:38:33.273Z,6.33
2017-02-28T01:39:14.788Z,6.28
2017-02-28T01:39:56.326Z,6.25
2017-02-28T01:41:56.209Z,6.19
2017-02-28T01:42:37.854Z,6.28
2017-02-28T01:44:27.233Z,6.22
2017-02-28T01:45:08.893Z,6.28
2017-02-28T01:45:50.371Z,6.27
2017-02-28T01:46:31.943Z,6.28
2017-02-28T01:47:13.408Z,6.31
2017-02-28T01:47:55.090Z,6.17
2017-02-28T01:48:36.750Z,6.21
2017-02-28T01:50:36.978Z,6.17
2017-02-28T01:51:18.591Z,6.22
2017-02-28T01:53:07.931Z,6.22
2017-02-28T01:53:49.491Z,6.22
2017-02-28T01:54:31.057Z,6.22
2017-02-28T01:55:12.445Z,6.22
2017-02-28T01:55:54.003Z,6.12
2017-02-28T01:56:35.554Z,6.21
2017-02-28T01:57:17.233Z,6.34
2017-02-28T01:57:58.763Z,6.22
2017-02-28T01:58:40.376Z,6.18
2017-02-28T02:00:55.633Z,6.28
2017-02-28T02:01:36.176Z,6.22
2017-02-28T02:02:16.711Z,6.21
2017-02-28T02:02:57.245Z,6.22
2017-02-28T02:03:37.775Z,6.21
2017-02-28T02:04:18.413Z,6.19
2017-02-28T02:04:58.957Z,6.15
2017-02-28T02:05:39.504Z,6.22
2017-02-28T02:06:20.044Z,6.22
2017-02-28T02:07:00.583Z,6.28
2017-02-28T02:07:41.119Z,6.3
2017-02-28T02:08:21.656Z,6.22
2017-02-28T02:09:02.189Z,6.22
2017-02-28T02:09:42.729Z,6.3
2017-02-28T02:10:23.264Z,6.25
2017-02-28T02:11:03.805Z,6.21
2017-02-28T02:11:44.336Z,6.25
2017-02-28T02:12:24.874Z,6.15
2017-02-28T02:13:05.407Z,6.18
2017-02-28T02:13:45.944Z,6.15
2017-02-28T02:14:26.484Z,6.14
2017-02-28T02:15:07.021Z,6.08
2017-02-28T02:15:47.564Z,5.99
2017-02-28T02:16:28.092Z,5.99
2017-02-28T02:17:08.627Z,6
2017-02-28T02:17:49.161Z,6
2017-02-28T02:18:29.706Z,5.97
2017-02-28T02:19:10.253Z,5.96
2017-02-28T02:19:50.791Z,5.89
2017-02-28T02:20:31.329Z,5.93
2017-02-28T02:21:11.872Z,5.89
2017-02-28T02:21:52.409Z,5.89
2017-02-28T02:22:32.938Z,5.82
2017-02-28T02:23:13.481Z,5.79
2017-02-28T02:23:54.014Z,5.85
2017-02-28T02:24:34.553Z,5.83
2017-02-28T02:25:15.093Z,5.83
2017-02-28T02:25:55.633Z,5.86
2017-02-28T02:26:36.170Z,5.75
2017-02-28T02:27:16.698Z,5.76
2017-02-28T02:27:57.241Z,5.83
2017-02-28T02:28:37.777Z,5.82
2017-02-28T02:29:18.314Z,5.82
2017-02-28T02:29:58.849Z,5.85
2017-02-28T02:30:39.392Z,5.9
2017-02-28T02:31:19.930Z,5.83
2017-02-28T02:32:00.468Z,5.86
2017-02-28T02:32:41.005Z,5.97
2017-02-28T02:33:21.541Z,5.82
2017-02-28T02:34:02.077Z,5.94
2017-02-28T02:34:42.622Z,5.89
2017-02-28T02:35:23.163Z,5.81
2017-02-28T02:36:03.699Z,5.9
2017-02-28T02:36:44.239Z,5.85
2017-02-28T02:37:24.781Z,5.81
2017-02-28T02:38:05.320Z,5.89
2017-02-28T02:38:45.860Z,5.82
2017-02-28T02:39:26.402Z,5.85
2017-02-28T02:40:06.946Z,5.86
2017-02-28T02:40:47.479Z,5.81
2017-02-28T02:41:28.014Z,5.79
2017-02-28T02:42:08.551Z,5.78
2017-02-28T02:42:49.096Z,5.71
2017-02-28T02:43:29.633Z,5.74
2017-02-28T02:44:10.157Z,5.79
2017-02-28T02:44:50.696Z,5.65
2017-02-28T02:45:31.231Z,5.68
2017-02-28T02:46:11.774Z,5.63
2017-02-28T02:46:52.311Z,5.71
2017-02-28T02:47:32.836Z,5.64
2017-02-28T02:48:13.366Z,5.65
2017-02-28T02:48:53.901Z,5.63
2017-02-28T02:49:34.435Z,5.51
2017-02-28T02:50:14.965Z,5.58
2017-02-28T02:50:55.512Z,5.54
2017-02-28T02:51:36.048Z,5.54
2017-02-28T02:52:16.613Z,5.54
2017-02-28T02:52:57.148Z,5.45
2017-02-28T02:53:37.692Z,5.45
2017-02-28T02:54:18.240Z,5.48
2017-02-28T02:54:58.773Z,5.53
2017-02-28T02:55:39.311Z,5.49
2017-02-28T02:56:19.843Z,5.42
2017-02-28T02:57:00.391Z,5.46
2017-02-28T02:57:40.934Z,5.48
2017-02-28T02:58:21.473Z,5.56
2017-02-28T02:59:02.013Z,5.49
2017-02-28T02:59:42.547Z,5.57
2017-02-28T03:00:23.088Z,5.42
2017-02-28T03:01:03.628Z,5.6
2017-02-28T03:01:44.167Z,5.58
2017-02-28T03:02:24.698Z,5.43
2017-02-28T03:03:05.248Z,5.57
2017-02-28T03:03:45.792Z,5.49
2017-02-28T03:04:26.338Z,5.43
2017-02-28T03:05:06.870Z,5.49
2017-02-28T03:05:47.406Z,5.45
2017-02-28T03:06:27.949Z,5.42
2017-02-28T03:07:08.476Z,5.4
2017-02-28T03:07:49.020Z,5.28
2017-02-28T03:08:29.551Z,5.43
2017-02-28T03:09:10.083Z,5.36
2017-02-28T03:09:50.626Z,5.43
2017-02-28T03:10:31.158Z,5.51
2017-02-28T03:11:11.694Z,5.48
2017-02-28T03:11:52.230Z,5.48
2017-02-28T03:12:32.770Z,5.48
2017-02-28T03:13:13.305Z,5.48
2017-02-28T03:13:53.856Z,5.48
2017-02-28T03:14:34.394Z,5.45
2017-02-28T03:15:14.933Z,5.48
2017-02-28T03:15:55.469Z,5.48
2017-02-28T03:16:36.006Z,5.46
2017-02-28T03:17:16.538Z,5.56
2017-02-28T03:17:57.079Z,5.46
2017-02-28T03:18:37.629Z,5.51
2017-02-28T03:19:18.164Z,5.48
2017-02-28T03:19:58.721Z,5.51
2017-02-28T03:20:39.257Z,5.51
2017-02-28T03:21:19.789Z,5.53
2017-02-28T03:22:00.337Z,5.48
2017-02-28T03:22:40.874Z,5.48
2017-02-28T03:23:21.414Z,5.48
2017-02-28T03:24:01.947Z,5.46
2017-02-28T03:24:42.484Z,5.42
2017-02-28T03:25:23.026Z,5.43
2017-02-28T03:26:03.564Z,5.53
2017-02-28T03:26:44.106Z,5.43
2017-02-28T03:27:24.644Z,5.49
2017-02-28T03:28:05.178Z,5.51
2017-02-28T03:28:45.737Z,5.53
2017-02-28T03:29:26.287Z,5.51
2017-02-28T03:30:06.825Z,5.45
2017-02-28T03:30:47.359Z,5.39
2017-02-28T03:31:27.892Z,5.35
2017-02-28T03:32:08.421Z,5.36
2017-02-28T03:32:48.957Z,5.42
2017-02-28T03:33:29.493Z,5.36
2017-02-28T03:34:10.093Z,5.4
2017-02-28T03:34:50.624Z,5.36
2017-02-28T03:35:31.168Z,5.36
2017-02-28T03:36:11.705Z,5.39
2017-02-28T03:36:52.240Z,5.4
2017-02-28T03:37:32.775Z,5.35
2017-02-28T03:38:13.307Z,5.35
2017-02-28T03:38:53.847Z,5.33
2017-02-28T03:39:34.390Z,5.39
2017-02-28T03:40:14.908Z,5.36
2017-02-28T03:40:55.444Z,5.33
2017-02-28T03:41:35.976Z,5.31
2017-02-28T03:42:16.506Z,5.36
2017-02-28T03:42:57.051Z,5.35
2017-02-28T03:43:37.582Z,5.36
2017-02-28T03:44:18.117Z,5.33
2017-02-28T03:44:58.659Z,5.39
2017-02-28T03:45:39.205Z,5.35
2017-02-28T03:46:19.737Z,5.42
2017-02-28T03:47:00.270Z,5.35
2017-02-28T03:47:40.809Z,5.36
2017-02-28T03:48:21.351Z,5.31
2017-02-28T03:49:01.884Z,5.38
2017-02-28T03:49:42.429Z,5.38
2017-02-28T03:50:22.962Z,5.31
2017-02-28T03:51:03.498Z,5.35
2017-02-28T03:51:44.032Z,5.24
2017-02-28T03:52:24.561Z,5.31
2017-02-28T03:53:05.107Z,5.33
2017-02-28T03:53:45.638Z,5.35
2017-02-28T03:54:26.212Z,5.38
2017-02-28T03:55:06.759Z,5.31
2017-02-28T03:55:47.292Z,5.33
2017-02-28T03:56:27.822Z,5.36
2017-02-28T03:57:08.358Z,5.35
2017-02-28T03:57:48.891Z,5.35
2017-02-28T03:58:29.427Z,5.42
2017-02-28T03:59:09.961Z,5.33
2017-02-28T03:59:50.492Z,5.35
2017-02-28T04:00:31.031Z,5.35
2017-02-28T04:01:11.592Z,5.36
2017-02-28T04:01:52.125Z,5.38
2017-02-28T04:02:32.670Z,5.28
2017-02-28T04:03:13.211Z,5.33
2017-02-28T04:03:53.755Z,5.33
2017-02-28T04:04:34.306Z,5.31
2017-02-28T04:05:14.882Z,5.21
2017-02-28T04:05:55.426Z,5.3
2017-02-28T04:06:35.965Z,5.25
2017-02-28T04:07:16.517Z,5.25
2017-02-28T04:07:57.064Z,5.28
2017-02-28T04:08:37.602Z,5.33
2017-02-28T04:09:18.136Z,5.25
2017-02-28T04:09:58.672Z,5.25
2017-02-28T04:10:39.207Z,5.31
2017-02-28T04:11:19.769Z,5.35
2017-02-28T04:12:00.290Z,5.25
2017-02-28T04:12:40.829Z,5.25
2017-02-28T04:13:21.370Z,5.21
2017-02-28T04:14:01.913Z,5.31
2017-02-28T04:14:42.458Z,5.33
2017-02-28T04:15:22.994Z,5.22
2017-02-28T04:16:03.532Z,5.24
2017-02-28T04:16:44.076Z,5.28
2017-02-28T04:17:24.607Z,5.22
2017-02-28T04:18:05.142Z,5.18
2017-02-28T04:18:45.686Z,5.22
2017-02-28T04:19:26.221Z,5.25
2017-02-28T04:20:06.775Z,5.2
2017-02-28T04:20:47.332Z,5.21
2017-02-28T04:21:27.872Z,5.21
2017-02-28T04:22:08.408Z,5.2
2017-02-28T04:22:48.957Z,5.21
2017-02-28T04:23:29.488Z,5.2
2017-02-28T04:24:10.021Z,5.13
2017-02-28T04:24:50.561Z,5.2
2017-02-28T04:25:31.096Z,5.2
2017-02-28T04:26:11.631Z,5.17
2017-02-28T04:26:52.168Z,5.2
2017-02-28T04:27:32.702Z,5.24
2017-02-28T04:28:13.236Z,5.28
2017-02-28T04:28:53.773Z,5.28
2017-02-28T04:29:34.318Z,5.17
2017-02-28T04:30:14.849Z,5.24
2017-02-28T04:30:55.391Z,5.2
2017-02-28T04:31:35.940Z,5.2
2017-02-28T04:32:16.805Z,5.18
2017-02-28T04:33:00.282Z,5.3
2017-02-28T04:33:42.868Z,5.25
2017-02-28T04:34:25.473Z,5.22
2017-02-28T04:35:07.199Z,5.2
2017-02-28T04:35:50.685Z,5.18
2017-02-28T04:36:33.125Z,5.24
2017-02-28T04:37:13.672Z,5.21
2017-02-28T04:37:54.213Z,5.12
2017-02-28T04:38:34.774Z,5.18
2017-02-28T04:39:15.314Z,5.15
2017-02-28T04:39:55.844Z,5.18
2017-02-28T04:40:36.385Z,5.17
2017-02-28T04:41:16.924Z,5.2
2017-02-28T04:41:57.466Z,5.17
2017-02-28T04:42:37.999Z,5.13
2017-02-28T04:43:18.540Z,5.25
2017-02-28T04:43:59.078Z,5.12
2017-02-28T04:44:39.616Z,5.22
2017-02-28T04:45:20.159Z,5.2
2017-02-28T04:46:00.940Z,5.15
2017-02-28T04:46:43.855Z,5.28
2017-02-28T04:47:27.306Z,5.27
2017-02-28T04:48:10.772Z,5.24
2017-02-28T04:48:54.098Z,5.24
2017-02-28T04:49:35.183Z,5.2
2017-02-28T04:50:15.720Z,5.17
2017-02-28T04:50:56.257Z,5.22
2017-02-28T04:51:36.801Z,5.18
2017-02-28T04:52:17.347Z,5.15
2017-02-28T04:52:57.892Z,5.12
2017-02-28T04:53:38.425Z,5.13
2017-02-28T04:54:18.958Z,5.2
2017-02-28T04:54:59.490Z,5.24
2017-02-28T04:55:40.032Z,5.12
2017-02-28T04:56:20.599Z,5.24
2017-02-28T04:57:01.137Z,5.13
2017-02-28T04:57:41.686Z,5.13
2017-02-28T04:58:22.222Z,5.18
2017-02-28T04:59:02.763Z,5.17
2017-02-28T04:59:43.368Z,5.12
2017-02-28T05:00:23.913Z,5.15
2017-02-28T05:01:04.458Z,5.18
2017-02-28T05:01:44.990Z,5.2
2017-02-28T05:02:25.547Z,5.13
2017-02-28T05:03:06.094Z,5.15
2017-02-28T05:03:46.650Z,5.13
2017-02-28T05:04:27.193Z,5.22
2017-02-28T05:05:07.742Z,5.18
2017-02-28T05:05:48.298Z,5.25
2017-02-28T05:06:28.834Z,5.13
2017-02-28T05:07:09.395Z,5.13
2017-02-28T05:07:49.947Z,5.12
2017-02-28T05:08:30.485Z,5.17
2017-02-28T05:09:11.035Z,5.24
2017-02-28T05:09:51.586Z,5.2
2017-02-28T05:10:32.133Z,5.13
2017-02-28T05:11:12.675Z,5.18
2017-02-28T05:11:53.220Z,5.15
2017-02-28T05:12:33.757Z,5.24
2017-02-28T05:13:14.292Z,5.21
2017-02-28T05:13:54.831Z,5.15
2017-02-28T05:14:35.367Z,5.1
2017-02-28T05:15:15.908Z,5.13
2017-02-28T05:15:56.451Z,5.13
2017-02-28T05:16:36.992Z,5.13
2017-02-28T05:17:17.543Z,5.17
2017-02-28T05:17:58.077Z,5.13
2017-02-28T05:18:38.616Z,5.17
2017-02-28T05:19:19.149Z,5.13
2017-02-28T05:19:59.691Z,5.13
2017-02-28T05:20:40.298Z,5.18
2017-02-28T05:21:20.841Z,5.12
2017-02-28T05:22:01.384Z,5.17
2017-02-28T05:22:41.928Z,5.15
2017-02-28T05:23:22.468Z,5.27
2017-02-28T05:24:03.011Z,5.17
2017-02-28T05:24:43.544Z,5.15
2017-02-28T05:25:24.077Z,5.21
2017-02-28T05:26:04.613Z,5.2
2017-02-28T05:26:45.156Z,5.12
2017-02-28T05:27:25.693Z,5.09
2017-02-28T05:28:06.233Z,5.13
2017-02-28T05:28:46.777Z,5.17
2017-02-28T05:29:27.322Z,5.1
2017-02-28T05:30:07.860Z,5.17
2017-02-28T05:30:48.401Z,5.12
2017-02-28T05:31:28.934Z,5.2
2017-02-28T05:32:09.467Z,5.15
2017-02-28T05:32:50.007Z,5.13
2017-02-28T05:33:30.542Z,5.04
2017-02-28T05:34:11.077Z,5.13
2017-02-28T05:34:51.623Z,5.15
2017-02-28T05:35:32.161Z,5.2
2017-02-28T05:36:12.699Z,5.2
2017-02-28T05:36:53.234Z,5.12
2017-02-28T05:37:33.795Z,5.04
2017-02-28T05:38:14.328Z,5.07
2017-02-28T05:38:54.882Z,5.18
2017-02-28T05:39:35.414Z,5.07
2017-02-28T05:40:15.947Z,5.04
2017-02-28T05:40:56.487Z,5.07
2017-02-28T05:41:37.020Z,5.07
2017-02-28T05:42:17.558Z,5.07
2017-02-28T05:42:58.091Z,5.1
2017-02-28T05:43:38.633Z,5.1
2017-02-28T05:44:19.170Z,5.06
2017-02-28T05:44:59.720Z,5.04
2017-02-28T05:45:40.269Z,5.07
2017-02-28T05:46:20.806Z,5.18
2017-02-28T05:47:01.352Z,5.1
2017-02-28T05:47:41.899Z,5.2
2017-02-28T05:48:22.434Z,5.28
2017-02-28T05:49:02.968Z,5.27
2017-02-28T05:49:43.540Z,5.31
2017-02-28T05:50:24.095Z,5.31
2017-02-28T05:51:04.626Z,5.38
2017-02-28T05:51:45.182Z,5.4
2017-02-28T05:52:25.717Z,5.38
2017-02-28T05:53:06.249Z,5.45
2017-02-28T05:53:46.798Z,5.49
2017-02-28T05:54:27.348Z,5.51
2017-02-28T05:55:07.888Z,5.45
2017-02-28T05:55:48.424Z,5.46
2017-02-28T05:56:28.957Z,5.45
2017-02-28T05:57:09.488Z,5.49
2017-02-28T05:57:50.024Z,5.33
2017-02-28T05:58:30.556Z,5.35
2017-02-28T05:59:11.092Z,5.4
2017-02-28T05:59:51.632Z,5.53
2017-02-28T06:00:32.170Z,5.48
2017-02-28T06:01:12.715Z,5.39
2017-02-28T06:01:53.265Z,5.36
2017-02-28T06:02:33.813Z,5.39
2017-02-28T06:03:14.344Z,5.38
2017-02-28T06:03:54.884Z,5.39
2017-02-28T06:04:35.432Z,5.42
2017-02-28T06:05:15.972Z,5.45
2017-02-28T06:05:56.528Z,5.36
2017-02-28T06:06:37.065Z,5.39
2017-02-28T06:07:17.600Z,5.36
2017-02-28T06:07:58.141Z,5.46
2017-02-28T06:08:38.680Z,5.43
2017-02-28T06:09:19.221Z,5.39
2017-02-28T06:09:59.768Z,5.48
2017-02-28T06:10:40.301Z,5.48
2017-02-28T06:11:20.840Z,5.48
2017-02-28T06:12:01.389Z,5.56
2017-02-28T06:12:41.933Z,5.56
2017-02-28T06:13:22.473Z,5.54
2017-02-28T06:14:03.007Z,5.49
2017-02-28T06:14:43.540Z,5.63
2017-02-28T06:15:24.082Z,5.64
2017-02-28T06:16:04.618Z,5.54
2017-02-28T06:16:45.158Z,5.6
2017-02-28T06:17:25.714Z,5.68
2017-02-28T06:18:06.248Z,5.61
2017-02-28T06:18:46.786Z,5.68
2017-02-28T06:19:27.327Z,5.68
2017-02-28T06:20:07.865Z,5.6
2017-02-28T06:20:48.405Z,5.67
2017-02-28T06:21:28.942Z,5.65
2017-02-28T06:22:09.490Z,5.71
2017-02-28T06:22:50.027Z,5.63
2017-02-28T06:23:30.567Z,5.63
2017-02-28T06:24:11.105Z,5.65
2017-02-28T06:24:51.653Z,5.78
2017-02-28T06:25:32.181Z,5.68
2017-02-28T06:26:12.717Z,5.75
2017-02-28T06:26:53.251Z,5.64
2017-02-28T06:27:33.796Z,5.64
2017-02-28T06:28:14.337Z,5.61
2017-02-28T06:28:54.873Z,5.6
2017-02-28T06:29:35.412Z,5.64
2017-02-28T06:30:15.957Z,5.65
2017-02-28T06:30:56.503Z,5.63
2017-02-28T06:31:37.038Z,5.63
2017-02-28T06:32:17.589Z,5.63
2017-02-28T06:32:58.134Z,5.61
2017-02-28T06:33:38.675Z,5.65
2017-02-28T06:34:19.217Z,5.61
2017-02-28T06:34:59.757Z,5.65
2017-02-28T06:35:40.304Z,5.6
2017-02-28T06:36:20.852Z,5.64
2017-02-28T06:37:01.388Z,5.63
2017-02-28T06:37:41.930Z,5.63
2017-02-28T06:38:22.465Z,5.61
2017-02-28T06:39:03.003Z,5.64
2017-02-28T06:39:43.537Z,5.63
2017-02-28T06:40:24.071Z,5.61
2017-02-28T06:41:04.639Z,5.54
2017-02-28T06:41:45.176Z,5.54
2017-02-28T06:42:25.713Z,5.57
2017-02-28T06:43:06.251Z,5.6
2017-02-28T06:43:46.784Z,5.56
2017-02-28T06:44:27.333Z,5.53
2017-02-28T06:45:07.870Z,5.54
2017-02-28T06:45:48.401Z,5.49
2017-02-28T06:46:28.936Z,5.57
2017-02-28T06:47:09.475Z,5.61
2017-02-28T06:47:50.007Z,5.61
2017-02-28T06:48:30.626Z,5.54
2017-02-28T06:49:11.483Z,5.51
2017-02-28T06:49:52.148Z,5.6
2017-02-28T06:50:32.684Z,5.57
2017-02-28T06:51:13.214Z,5.51
2017-02-28T06:51:53.746Z,5.45
2017-02-28T06:52:34.297Z,5.57
2017-02-28T06:53:14.841Z,5.6
2017-02-28T06:53:55.385Z,5.54
2017-02-28T06:54:35.926Z,5.45
2017-02-28T06:55:16.515Z,5.53
2017-02-28T06:55:57.067Z,5.45
2017-02-28T06:56:37.616Z,5.45
2017-02-28T06:57:18.164Z,5.6
2017-02-28T06:57:58.712Z,5.45
2017-02-28T06:58:39.269Z,5.54
2017-02-28T06:59:19.804Z,5.45
2017-02-28T07:00:00.339Z,5.43
2017-02-28T07:00:40.870Z,5.54
2017-02-28T07:01:21.425Z,5.54
2017-02-28T07:02:01.960Z,5.57
2017-02-28T07:02:42.498Z,5.54
2017-02-28T07:03:23.029Z,5.51
2017-02-28T07:04:03.568Z,5.54
2017-02-28T07:04:44.136Z,5.51
2017-02-28T07:05:24.682Z,5.58
2017-02-28T07:06:05.211Z,5.54
2017-02-28T07:06:45.749Z,5.53
2017-02-28T07:07:26.298Z,5.56
2017-02-28T07:08:06.838Z,5.48
2017-02-28T07:08:47.372Z,5.58
2017-02-28T07:09:28.009Z,5.43
2017-02-28T07:10:08.568Z,5.46
2017-02-28T07:10:49.163Z,5.56
2017-02-28T07:11:29.695Z,5.53
2017-02-28T07:12:10.293Z,5.48
2017-02-28T07:12:50.937Z,5.53
2017-02-28T07:13:31.641Z,5.57
2017-02-28T07:14:12.184Z,5.46
2017-02-28T07:14:52.743Z,5.45
2017-02-28T07:15:33.327Z,5.54
2017-02-28T07:16:13.869Z,5.58
2017-02-28T07:16:54.481Z,5.57
2017-02-28T07:17:35.031Z,5.51
2017-02-28T07:18:15.587Z,5.63
2017-02-28T07:18:56.192Z,5.48
2017-02-28T07:19:36.735Z,5.51
2017-02-28T07:20:17.275Z,5.51
2017-02-28T07:20:57.814Z,5.49
2017-02-28T07:21:38.345Z,5.57
2017-02-28T07:22:18.896Z,5.46
2017-02-28T07:22:59.434Z,5.48
2017-02-28T07:23:39.969Z,5.61
2017-02-28T07:24:20.519Z,5.58
2017-02-28T07:25:01.053Z,5.51
2017-02-28T07:25:41.596Z,5.57
2017-02-28T07:26:22.144Z,5.51
2017-02-28T07:27:02.686Z,5.42
2017-02-28T07:27:43.230Z,5.57
2017-02-28T07:28:23.768Z,5.56
2017-02-28T07:29:04.308Z,5.63
2017-02-28T07:29:44.854Z,5.54
2017-02-28T07:30:25.369Z,5.49
2017-02-28T07:31:05.921Z,5.54
2017-02-28T07:31:46.450Z,5.49
2017-02-28T07:32:26.992Z,5.56
2017-02-28T07:33:07.533Z,5.63
2017-02-28T07:33:48.065Z,5.61
2017-02-28T07:34:28.606Z,5.64
2017-02-28T07:35:09.163Z,5.6
2017-02-28T07:35:49.700Z,5.67
2017-02-28T07:36:30.228Z,5.67
2017-02-28T07:37:10.773Z,5.63
2017-02-28T07:37:51.309Z,5.6
2017-02-28T07:38:31.852Z,5.68
2017-02-28T07:39:12.391Z,5.75
2017-02-28T07:39:52.926Z,5.71
2017-02-28T07:40:33.499Z,5.64
2017-02-28T07:41:14.036Z,5.65
2017-02-28T07:41:54.577Z,5.71
2017-02-28T07:42:35.118Z,5.68
2017-02-28T07:43:15.652Z,5.75
2017-02-28T07:43:56.184Z,5.67
2017-02-28T07:44:36.730Z,5.74
2017-02-28T07:45:17.273Z,5.71
2017-02-28T07:45:57.807Z,5.67
2017-02-28T07:46:38.343Z,5.72
2017-02-28T07:47:18.884Z,5.75
2017-02-28T07:47:59.413Z,5.71
2017-02-28T07:48:39.960Z,5.79
2017-02-28T07:49:20.508Z,5.79
2017-02-28T07:50:01.042Z,5.81
2017-02-28T07:50:41.579Z,5.74
2017-02-28T07:51:22.118Z,5.83
2017-02-28T07:52:02.669Z,5.85
2017-02-28T07:52:43.203Z,5.9
2017-02-28T07:53:23.753Z,5.85
2017-02-28T07:54:04.289Z,5.89
2017-02-28T07:54:44.819Z,5.86
2017-02-28T07:55:25.361Z,5.86
2017-02-28T07:56:05.896Z,5.96
2017-02-28T07:56:46.438Z,5.94
2017-02-28T07:57:26.972Z,5.93
2017-02-28T07:58:07.515Z,5.94
2017-02-28T07:58:48.060Z,6.04
2017-02-28T07:59:28.602Z,6.04
2017-02-28T08:00:09.136Z,6.06
2017-02-28T08:00:49.673Z,6.08
2017-02-28T08:01:30.212Z,5.93
2017-02-28T08:02:10.744Z,5.94
2017-02-28T08:02:51.293Z,5.91
2017-02-28T08:03:31.827Z,5.96
2017-02-28T08:04:12.359Z,5.94
2017-02-28T08:04:52.907Z,5.96
2017-02-28T08:05:33.446Z,5.97
2017-02-28T08:06:13.980Z,6.11
2017-02-28T08:06:54.523Z,6.01
2017-02-28T08:07:35.055Z,6.06
2017-02-28T08:08:15.605Z,6.12
2017-02-28T08:08:56.154Z,6.11
2017-02-28T08:09:36.703Z,6.14
2017-02-28T08:10:17.499Z,6.11
2017-02-28T08:10:58.581Z,6.17
2017-02-28T08:11:39.132Z,6.19
2017-02-28T08:12:19.681Z,6.22
2017-02-28T08:13:00.227Z,6.28
2017-02-28T08:13:40.760Z,6.49
2017-02-28T08:14:21.301Z,6.73
2017-02-28T08:15:01.902Z,6.98
2017-02-28T08:15:42.444Z,7.2
2017-02-28T08:16:22.979Z,7.57
2017-02-28T08:17:03.516Z,7.83
2017-02-28T08:17:44.055Z,7.93
2017-02-28T08:18:24.588Z,7.93
2017-02-28T08:19:05.198Z,8.02
2017-02-28T08:19:45.732Z,8.07
2017-02-28T08:20:26.263Z,7.93
2017-02-28T08:21:06.811Z,7.87
2017-02-28T08:21:47.360Z,7.48
2017-02-28T08:22:27.907Z,7.48
2017-02-28T08:23:08.443Z,7.28
2017-02-28T08:23:48.984Z,7.07
2017-02-28T08:24:29.538Z,7.06
2017-02-28T08:25:10.084Z,6.97
2017-02-28T08:25:50.624Z,6.97
2017-02-28T08:26:31.194Z,6.97
2017-02-28T08:27:11.723Z,6.81
2017-02-28T08:27:52.266Z,6.79
2017-02-28T08:28:32.811Z,6.87
2017-02-28T08:29:13.395Z,6.95
2017-02-28T08:29:53.933Z,7.06
2017-02-28T08:30:34.475Z,7.17
2017-02-28T08:31:15.014Z,7.61
2017-02-28T08:31:55.562Z,8.1
2017-02-28T08:32:36.104Z,8.37
2017-02-28T08:33:16.651Z,8.55
2017-02-28T08:33:57.207Z,8.47
2017-02-28T08:34:37.750Z,8.5
2017-02-28T08:35:18.292Z,8.58
2017-02-28T08:35:58.829Z,8.56
2017-02-28T08:36:39.383Z,8.55
2017-02-28T08:37:19.927Z,8.11
2017-02-28T08:38:00.472Z,7.93
2017-02-28T08:38:41.020Z,7.77
2017-02-28T08:39:21.551Z,7.55
2017-02-28T08:40:02.096Z,7.52
2017-02-28T08:40:42.638Z,7.42
2017-02-28T08:41:23.179Z,7.35
2017-02-28T08:42:03.717Z,7.16
2017-02-28T08:42:44.255Z,7.25
2017-02-28T08:43:24.788Z,7.23
2017-02-28T08:44:05.329Z,7.2
2017-02-28T08:44:45.864Z,7.31
2017-02-28T08:45:26.407Z,7.16
2017-02-28T08:46:06.944Z,7.17
2017-02-28T08:46:47.483Z,7.35
2017-02-28T08:47:28.018Z,7.53
2017-02-28T08:48:08.551Z,7.74
2017-02-28T08:48:49.087Z,8.02
2017-02-28T08:49:29.630Z,7.98
2017-02-28T08:50:10.166Z,7.92
2017-02-28T08:50:50.707Z,8.11
2017-02-28T08:51:31.245Z,7.95
2017-02-28T08:52:11.791Z,8.01
2017-02-28T08:52:52.330Z,7.89
2017-02-28T08:53:32.879Z,7.89
2017-02-28T08:54:13.418Z,7.71
2017-02-28T08:54:53.952Z,7.58
2017-02-28T08:55:34.494Z,7.53
2017-02-28T08:56:15.038Z,7.43
2017-02-28T08:56:55.665Z,7.32
2017-02-28T08:57:36.183Z,7.48
2017-02-28T08:58:16.725Z,7.42
2017-02-28T08:58:57.269Z,7.37
2017-02-28T08:59:37.803Z,7.55
2017-02-28T09:00:18.354Z,7.53
2017-02-28T09:00:58.897Z,7.69
2017-02-28T09:01:39.429Z,7.74
2017-02-28T09:02:19.980Z,7.9
2017-02-28T09:03:00.526Z,7.85
2017-02-28T09:03:41.082Z,7.93
2017-02-28T09:04:21.606Z,8.1
2017-02-28T09:05:02.149Z,8.11
2017-02-28T09:05:42.682Z,8.18
2017-02-28T09:06:23.215Z,8.11
2017-02-28T09:07:03.753Z,8.1
2017-02-28T09:07:44.285Z,8.22
2017-02-28T09:08:24.827Z,7.95
2017-02-28T09:09:05.363Z,7.95
2017-02-28T09:09:45.907Z,8.07
2017-02-28T09:10:26.449Z,7.98
2017-02-28T09:11:06.996Z,7.92
2017-02-28T09:11:47.534Z,7.95
2017-02-28T09:12:28.065Z,7.98
2017-02-28T09:13:08.606Z,7.9
2017-02-28T09:13:49.139Z,7.92
2017-02-28T09:14:29.693Z,7.92
2017-02-28T09:15:10.231Z,7.98
2017-02-28T09:15:50.767Z,8.07
2017-02-28T09:16:31.306Z,8.18
2017-02-28T09:17:11.853Z,8.11
2017-02-28T09:17:52.392Z,8.16
2017-02-28T09:18:32.932Z,8.11
2017-02-28T09:19:13.468Z,8.07
2017-02-28T09:19:54.012Z,8.08
2017-02-28T09:20:34.548Z,8.22
2017-02-28T09:21:15.099Z,8.28
2017-02-28T09:21:55.649Z,8.38
2017-02-28T09:22:36.191Z,8.47
2017-02-28T09:23:16.728Z,8.61
2017-02-28T09:23:57.274Z,8.77
2017-02-28T09:24:39.108Z,8.8
2017-02-28T09:25:19.646Z,9.08
2017-02-28T09:26:00.184Z,9.35
2017-02-28T09:26:40.732Z,9.46
2017-02-28T09:27:21.280Z,9.4
2017-02-28T09:28:01.844Z,9.57
2017-02-28T09:28:42.379Z,9.99
2017-02-28T09:29:22.934Z,10.56
2017-02-28T09:30:03.491Z,11.19
2017-02-28T09:30:44.033Z,11.7
2017-02-28T09:31:24.601Z,11.33
2017-02-28T09:32:05.134Z,11.67
2017-02-28T09:32:45.697Z,11.76